createdAt,value
2018-03-25T00:01:11.054Z,63.07
2018-03-25T00:03:38.456Z,63.11
2018-03-25T00:06:05.834Z,62.98
2018-03-25T00:08:33.233Z,62.49
2018-03-25T00:11:00.614Z,61.85
2018-03-25T00:13:28.006Z,61.67
2018-03-25T00:15:55.458Z,62.30
2018-03-25T00:18:22.854Z,62.36
2018-03-25T00:20:50.262Z,62.47
2018-03-25T00:23:17.661Z,62.35
2018-03-25T00:25:45.079Z,62.10
2018-03-25T00:28:12.474Z,62.27
2018-03-25T00:30:39.858Z,62.14
2018-03-25T00:33:07.250Z,62.95
2018-03-25T00:35:34.639Z,62.92
2018-03-25T00:38:02.062Z,63.31
2018-03-25T00:40:29.451Z,62.73
2018-03-25T00:42:56.879Z,62.32
2018-03-25T00:45:24.263Z,62.55
2018-03-25T00:47:51.654Z,62.24
2018-03-25T00:50:19.037Z,62.11
2018-03-25T00:52:46.490Z,61.65
2018-03-25T00:55:13.881Z,61.43
2018-03-25T00:57:41.298Z,61.24
2018-03-25T01:00:08.702Z,61.35
2018-03-25T01:02:36.118Z,60.93
2018-03-25T01:05:03.592Z,61.01
2018-03-25T01:07:30.990Z,61.57
2018-03-25T01:09:58.380Z,61.66
2018-03-25T01:12:25.851Z,61.34
2018-03-25T01:14:53.246Z,61.51
2018-03-25T01:17:20.626Z,61.44
2018-03-25T01:19:48.026Z,61.69
2018-03-25T01:22:15.419Z,62.33
2018-03-25T01:24:42.814Z,63.31
2018-03-25T01:27:10.278Z,63.35
2018-03-25T01:29:37.738Z,63.35
2018-03-25T01:32:05.208Z,63.32
2018-03-25T01:34:32.602Z,62.77
2018-03-25T01:37:00.098Z,62.40
2018-03-25T01:39:27.566Z,62.60
2018-03-25T01:41:55.019Z,62.54
2018-03-25T01:44:22.477Z,62.54
2018-03-25T01:46:49.870Z,62.12
2018-03-25T01:49:17.258Z,61.98
2018-03-25T01:51:44.647Z,61.92
2018-03-25T01:54:12.102Z,61.99
2018-03-25T01:56:39.491Z,61.71
2018-03-25T01:59:06.882Z,61.68
2018-03-25T02:01:34.267Z,61.71
2018-03-25T02:04:01.668Z,61.72
2018-03-25T02:06:29.079Z,62.42
2018-03-25T02:08:56.468Z,62.77
2018-03-25T02:11:23.886Z,62.80
2018-03-25T02:13:51.348Z,63.08
2018-03-25T02:16:18.735Z,63.27
2018-03-25T02:18:46.140Z,63.55
2018-03-25T02:21:13.523Z,62.88
2018-03-25T02:23:40.925Z,62.45
2018-03-25T02:26:08.305Z,62.41
2018-03-25T02:28:35.691Z,63.31
2018-03-25T02:31:03.087Z,63.52
2018-03-25T02:33:30.480Z,63.66
2018-03-25T02:35:57.942Z,64.19
2018-03-25T02:38:25.602Z,64.52
2018-03-25T02:40:53.160Z,64.67
2018-03-25T02:43:20.615Z,64.96
2018-03-25T02:45:48.002Z,64.76
2018-03-25T02:48:15.438Z,64.79
2018-03-25T02:50:42.888Z,64.71
2018-03-25T02:53:10.279Z,64.52
2018-03-25T02:55:37.676Z,64.74
2018-03-25T02:58:05.070Z,64.72
2018-03-25T03:00:32.480Z,64.23
2018-03-25T03:02:59.867Z,63.98
2018-03-25T03:05:27.251Z,64.15
2018-03-25T03:07:54.721Z,64.16
2018-03-25T03:10:22.126Z,64.47
2018-03-25T03:12:49.515Z,64.59
2018-03-25T03:15:16.906Z,64.42
2018-03-25T03:17:44.291Z,64.15
2018-03-25T03:20:11.691Z,63.88
2018-03-25T03:22:39.092Z,63.69
2018-03-25T03:25:06.544Z,64.07
2018-03-25T03:27:33.942Z,64.24
2018-03-25T03:30:01.339Z,64.20
2018-03-25T03:32:28.807Z,64.64
2018-03-25T03:34:56.254Z,64.87
2018-03-25T03:37:23.666Z,65.44
2018-03-25T03:39:51.085Z,64.90
2018-03-25T03:42:18.579Z,64.92
2018-03-25T03:44:45.974Z,64.34
2018-03-25T03:47:13.368Z,63.94
2018-03-25T03:49:40.841Z,63.62
2018-03-25T03:52:08.307Z,63.57
2018-03-25T03:54:35.704Z,63.56
2018-03-25T03:57:03.123Z,63.89
2018-03-25T03:59:30.590Z,64.14
2018-03-25T04:01:58.039Z,63.74
2018-03-25T04:04:25.430Z,64.15
2018-03-25T04:06:52.820Z,64.05
2018-03-25T04:09:20.295Z,64.19
2018-03-25T04:11:47.686Z,64.74
2018-03-25T04:14:15.077Z,65.22
2018-03-25T04:16:42.563Z,65.41
2018-03-25T04:19:10.026Z,65.85
2018-03-25T04:21:37.474Z,66.40
2018-03-25T04:24:04.870Z,66.45
2018-03-25T04:26:32.260Z,66.95
2018-03-25T04:28:59.651Z,66.84
2018-03-25T04:31:27.038Z,66.84
2018-03-25T04:33:54.450Z,66.74
2018-03-25T04:36:21.834Z,66.81
2018-03-25T04:38:49.223Z,67.10
2018-03-25T04:41:16.616Z,67.61
2018-03-25T04:43:44.081Z,67.65
2018-03-25T04:46:11.467Z,68.20
2018-03-25T04:48:38.851Z,68.43
2018-03-25T04:51:06.238Z,68.31
2018-03-25T04:53:33.634Z,68.04
2018-03-25T04:56:01.052Z,68.00
2018-03-25T04:58:28.524Z,68.32
2018-03-25T05:00:55.929Z,68.48
2018-03-25T05:03:23.364Z,68.77
2018-03-25T05:05:50.759Z,68.78
2018-03-25T05:08:18.142Z,68.93
2018-03-25T05:10:45.542Z,69.35
2018-03-25T05:13:12.934Z,69.30
2018-03-25T05:15:40.426Z,69.62
2018-03-25T05:18:07.813Z,69.28
2018-03-25T05:20:35.255Z,69.21
2018-03-25T05:23:02.642Z,69.24
2018-03-25T05:25:30.055Z,68.81
2018-03-25T05:27:57.449Z,68.61
2018-03-25T05:30:24.838Z,68.11
2018-03-25T05:32:52.223Z,68.03
2018-03-25T05:35:19.622Z,67.76
2018-03-25T05:37:47.008Z,67.86
2018-03-25T05:40:14.403Z,67.79
2018-03-25T05:42:41.788Z,67.71
2018-03-25T05:45:09.182Z,67.13
2018-03-25T05:47:36.574Z,67.57
2018-03-25T05:50:03.968Z,67.71
2018-03-25T05:52:31.451Z,67.56
2018-03-25T05:54:58.915Z,67.83
2018-03-25T05:57:26.362Z,67.75
2018-03-25T05:59:53.762Z,67.32
2018-03-25T06:02:21.153Z,67.23
2018-03-25T06:04:48.552Z,67.14
2018-03-25T06:07:15.939Z,66.67
2018-03-25T06:09:43.335Z,66.66
2018-03-25T06:12:10.817Z,66.77
2018-03-25T06:14:38.210Z,66.70
2018-03-25T06:17:05.602Z,66.52
2018-03-25T06:19:33.007Z,66.00
2018-03-25T06:22:00.382Z,66.58
2018-03-25T06:24:27.897Z,66.62
2018-03-25T06:26:55.279Z,66.70
2018-03-25T06:29:22.686Z,67.14
2018-03-25T06:31:50.156Z,66.56
2018-03-25T06:34:17.602Z,66.09
2018-03-25T06:36:44.994Z,65.87
2018-03-25T06:39:12.402Z,65.62
2018-03-25T06:41:39.796Z,65.75
2018-03-25T06:44:07.183Z,65.81
2018-03-25T06:46:34.674Z,65.51
2018-03-25T06:49:02.143Z,64.99
2018-03-25T06:51:29.540Z,65.05
2018-03-25T06:53:56.943Z,64.70
2018-03-25T06:56:24.344Z,64.46
2018-03-25T06:58:51.735Z,64.10
2018-03-25T07:01:19.159Z,64.64
2018-03-25T07:03:46.582Z,64.16
2018-03-25T07:06:13.976Z,63.70
2018-03-25T07:08:41.376Z,64.14
2018-03-25T07:11:08.773Z,63.32
2018-03-25T07:13:36.163Z,63.43
2018-03-25T07:16:03.647Z,63.24
2018-03-25T07:18:31.038Z,62.81
2018-03-25T07:20:58.451Z,62.47
2018-03-25T07:23:25.926Z,61.59
2018-03-25T07:25:53.314Z,61.38
2018-03-25T07:28:20.707Z,62.01
2018-03-25T07:30:48.152Z,61.54
2018-03-25T07:33:15.535Z,62.04
2018-03-25T07:35:42.987Z,62.72
2018-03-25T07:38:10.383Z,61.81
2018-03-25T07:40:37.794Z,61.52
2018-03-25T07:43:05.189Z,61.70
2018-03-25T07:45:32.679Z,61.27
2018-03-25T07:48:00.003Z,61.37
2018-03-25T07:50:27.414Z,61.72
2018-03-25T07:52:54.807Z,61.80
2018-03-25T07:55:22.193Z,60.21
2018-03-25T07:57:49.694Z,60.36
2018-03-25T08:00:17.086Z,60.17
2018-03-25T08:02:44.475Z,58.93
2018-03-25T08:05:11.870Z,59.81
2018-03-25T08:07:39.307Z,59.22
2018-03-25T08:10:06.703Z,59.08
2018-03-25T08:12:34.103Z,58.67
2018-03-25T08:15:01.495Z,60.16
2018-03-25T08:17:28.896Z,59.57
2018-03-25T08:19:56.387Z,59.29
2018-03-25T08:22:23.803Z,58.29
2018-03-25T08:24:51.189Z,58.13
2018-03-25T08:27:18.603Z,57.68
2018-03-25T08:29:45.992Z,58.61
2018-03-25T08:32:13.477Z,56.72
2018-03-25T08:34:40.884Z,56.72
2018-03-25T08:37:08.278Z,55.78
2018-03-25T08:39:35.727Z,56.06
2018-03-25T08:42:03.142Z,54.50
2018-03-25T08:44:30.521Z,55.52
2018-03-25T08:46:57.927Z,53.62
2018-03-25T08:49:25.330Z,54.75
2018-03-25T08:51:52.807Z,54.70
2018-03-25T08:54:20.267Z,52.52
2018-03-25T08:56:47.666Z,51.29
2018-03-25T08:59:15.059Z,49.62
2018-03-25T09:01:42.531Z,49.42
2018-03-25T09:04:09.987Z,47.74
2018-03-25T09:06:37.390Z,46.37
2018-03-25T09:09:04.787Z,40.13
2018-03-25T09:11:32.254Z,37.11
2018-03-25T09:13:59.643Z,35.00
2018-03-25T09:16:27.048Z,32.82
2018-03-25T09:18:54.436Z,28.29
2018-03-25T09:21:21.835Z,31.47
2018-03-25T09:23:49.231Z,30.05
2018-03-25T09:26:16.631Z,29.71
2018-03-25T09:28:44.036Z,29.59
2018-03-25T09:31:11.499Z,31.29
2018-03-25T09:33:38.891Z,33.11
2018-03-25T09:36:06.310Z,30.46
2018-03-25T09:38:33.702Z,31.63
2018-03-25T09:41:01.115Z,30.87
2018-03-25T09:43:28.499Z,29.46
2018-03-25T09:45:55.934Z,30.42
2018-03-25T09:48:23.327Z,29.46
2018-03-25T09:50:50.750Z,32.10
2018-03-25T09:53:18.151Z,28.99
2018-03-25T09:55:45.559Z,30.32
2018-03-25T09:58:12.953Z,29.20
2018-03-25T10:00:40.360Z,29.21
2018-03-25T10:03:13.377Z,28.38
2018-03-25T10:05:40.840Z,30.58
2018-03-25T10:08:08.230Z,30.08
2018-03-25T10:10:35.690Z,28.41
2018-03-25T10:13:03.090Z,28.88
2018-03-25T10:15:30.482Z,30.15
2018-03-25T10:17:57.898Z,27.62
2018-03-25T10:20:25.294Z,28.84
2018-03-25T10:22:52.770Z,29.15
2018-03-25T10:25:21.163Z,29.72
2018-03-25T10:27:48.568Z,32.18
2018-03-25T10:30:15.958Z,30.54
2018-03-25T10:32:43.362Z,31.76
2018-03-25T10:35:10.766Z,34.70
2018-03-25T10:37:38.167Z,32.67
2018-03-25T10:40:05.567Z,33.82
2018-03-25T10:42:33.039Z,33.74
2018-03-25T10:45:00.504Z,33.44
2018-03-25T10:47:27.916Z,35.29
2018-03-25T10:49:55.414Z,34.58
2018-03-25T10:52:22.823Z,34.51
2018-03-25T10:54:50.446Z,34.70
2018-03-25T10:57:17.896Z,32.78
2018-03-25T10:59:45.295Z,32.83
2018-03-25T11:02:12.719Z,32.80
2018-03-25T11:04:40.170Z,33.62
2018-03-25T11:07:07.515Z,34.84
2018-03-25T11:09:34.920Z,35.42
2018-03-25T11:12:02.355Z,34.99
2018-03-25T11:14:29.754Z,35.23
2018-03-25T11:16:57.156Z,35.27
2018-03-25T11:19:24.555Z,34.88
2018-03-25T11:21:51.977Z,37.07
2018-03-25T11:24:19.346Z,34.13
2018-03-25T11:26:46.738Z,33.98
2018-03-25T11:29:14.152Z,34.08
2018-03-25T11:31:41.589Z,34.69
2018-03-25T11:34:08.992Z,36.06
2018-03-25T11:36:36.387Z,32.81
2018-03-25T11:39:03.791Z,34.75
2018-03-25T11:41:31.182Z,34.91
2018-03-25T11:43:58.614Z,32.82
2018-03-25T11:46:26.071Z,32.68
2018-03-25T11:48:53.529Z,32.48
2018-03-25T11:51:20.989Z,32.17
2018-03-25T11:53:48.441Z,32.17
2018-03-25T11:56:15.832Z,32.20
2018-03-25T11:58:43.230Z,30.60
2018-03-25T12:01:10.631Z,30.49
2018-03-25T12:03:38.038Z,29.70
2018-03-25T12:06:05.435Z,30.31
2018-03-25T12:08:32.842Z,31.54
2018-03-25T12:11:00.336Z,30.17
2018-03-25T12:13:27.754Z,30.98
2018-03-25T12:15:55.152Z,31.44
2018-03-25T12:18:22.627Z,31.25
2018-03-25T12:20:50.007Z,30.84
2018-03-25T12:23:17.413Z,30.58
2018-03-25T12:25:44.806Z,30.67
2018-03-25T12:28:12.226Z,31.65
2018-03-25T12:30:39.687Z,32.18
2018-03-25T12:33:07.087Z,30.86
2018-03-25T12:35:35.369Z,31.15
2018-03-25T12:38:02.817Z,31.65
2018-03-25T12:40:30.231Z,31.80
2018-03-25T12:42:57.804Z,31.71
2018-03-25T12:45:25.191Z,31.99
2018-03-25T12:47:52.607Z,31.93
2018-03-25T12:50:20.003Z,31.70
2018-03-25T12:52:47.415Z,31.25
2018-03-25T12:55:14.822Z,30.44
2018-03-25T12:57:42.210Z,31.78
2018-03-25T13:00:09.615Z,31.08
2018-03-25T13:02:37.039Z,30.73
2018-03-25T13:05:04.438Z,31.03
2018-03-25T13:07:31.839Z,31.54
2018-03-25T13:09:59.243Z,32.38
2018-03-25T13:12:26.663Z,33.54
2018-03-25T13:14:54.123Z,33.09
2018-03-25T13:17:21.583Z,33.00
2018-03-25T13:19:49.030Z,32.00
2018-03-25T13:22:16.423Z,32.55
2018-03-25T13:24:43.829Z,33.58
2018-03-25T13:27:11.268Z,32.81
2018-03-25T13:29:38.666Z,33.01
2018-03-25T13:32:06.211Z,32.76
2018-03-25T13:34:33.606Z,33.18
2018-03-25T13:37:01.011Z,33.42
2018-03-25T13:39:28.438Z,34.06
2018-03-25T13:41:55.838Z,33.77
2018-03-25T13:44:23.238Z,32.66
2018-03-25T13:46:50.690Z,33.80
2018-03-25T13:49:18.098Z,33.49
2018-03-25T13:51:45.491Z,34.62
2018-03-25T13:54:12.975Z,34.08
2018-03-25T13:56:40.436Z,35.16
2018-03-25T13:59:07.891Z,35.69
2018-03-25T14:01:35.347Z,35.59
2018-03-25T14:04:02.807Z,36.76
2018-03-25T14:06:30.262Z,35.28
2018-03-25T14:08:57.733Z,34.88
2018-03-25T14:11:25.127Z,35.75
2018-03-25T14:13:52.527Z,35.02
2018-03-25T14:16:19.928Z,35.15
2018-03-25T14:18:47.342Z,36.18
2018-03-25T14:21:14.742Z,36.37
2018-03-25T14:23:42.134Z,37.36
2018-03-25T14:26:09.611Z,35.85
2018-03-25T14:28:37.010Z,36.62
2018-03-25T14:31:04.445Z,36.49
2018-03-25T14:33:31.830Z,35.56
2018-03-25T14:35:59.230Z,35.49
2018-03-25T14:38:26.622Z,36.27
2018-03-25T14:40:54.057Z,36.33
2018-03-25T14:43:21.503Z,36.12
2018-03-25T14:45:48.902Z,37.32
2018-03-25T14:48:16.315Z,37.61
2018-03-25T14:50:43.723Z,39.00
2018-03-25T14:53:11.119Z,39.86
2018-03-25T14:55:38.527Z,38.62
2018-03-25T14:58:05.949Z,38.46
2018-03-25T15:00:33.359Z,38.10
2018-03-25T15:03:00.747Z,38.74
2018-03-25T15:05:28.147Z,38.65
2018-03-25T15:07:55.561Z,38.85
2018-03-25T15:10:23.137Z,38.76
2018-03-25T15:12:50.587Z,40.49
2018-03-25T15:15:18.038Z,39.47
2018-03-25T15:17:45.435Z,38.90
2018-03-25T15:20:12.836Z,40.11
2018-03-25T15:22:40.323Z,40.22
2018-03-25T15:25:07.731Z,40.77
2018-03-25T15:27:35.124Z,41.25
2018-03-25T15:30:02.568Z,40.01
2018-03-25T15:32:29.975Z,41.49
2018-03-25T15:34:57.383Z,42.32
2018-03-25T15:37:25.660Z,42.64
2018-03-25T15:39:53.060Z,41.82
2018-03-25T15:42:20.523Z,41.31
2018-03-25T15:44:47.927Z,41.86
2018-03-25T15:47:15.339Z,41.90
2018-03-25T15:49:42.792Z,41.96
2018-03-25T15:52:10.263Z,42.46
2018-03-25T15:54:37.670Z,43.75
2018-03-25T15:57:05.167Z,44.48
2018-03-25T15:59:32.627Z,44.62
2018-03-25T16:02:00.080Z,45.02
2018-03-25T16:04:27.487Z,45.29
2018-03-25T16:06:54.889Z,45.56
2018-03-25T16:09:22.342Z,46.17
2018-03-25T16:11:49.812Z,46.26
2018-03-25T16:14:17.212Z,46.73
2018-03-25T16:16:44.718Z,46.90
2018-03-25T16:19:12.171Z,45.52
2018-03-25T16:21:39.571Z,46.06
2018-03-25T16:24:06.991Z,45.17
2018-03-25T16:26:34.390Z,45.66
2018-03-25T16:29:01.779Z,45.39
2018-03-25T16:31:29.191Z,45.79
2018-03-25T16:33:56.578Z,45.27
2018-03-25T16:36:24.145Z,45.18
2018-03-25T16:38:51.523Z,45.66
2018-03-25T16:41:18.978Z,45.65
2018-03-25T16:43:46.373Z,46.57
2018-03-25T16:46:13.788Z,47.00
2018-03-25T16:48:41.186Z,47.85
2018-03-25T16:51:08.587Z,48.19
2018-03-25T16:53:35.988Z,48.23
2018-03-25T16:56:03.434Z,48.01
2018-03-25T16:58:30.835Z,48.00
2018-03-25T17:00:58.253Z,48.37
2018-03-25T17:03:25.715Z,48.18
2018-03-25T17:05:53.172Z,48.58
2018-03-25T17:08:20.559Z,49.15
2018-03-25T17:10:47.980Z,49.11
2018-03-25T17:13:15.374Z,49.30
2018-03-25T17:15:42.785Z,49.73
2018-03-25T17:18:10.258Z,50.30
2018-03-25T17:20:37.659Z,49.97
2018-03-25T17:23:05.059Z,49.82
2018-03-25T17:25:32.514Z,50.15
2018-03-25T17:27:59.927Z,50.26
2018-03-25T17:30:27.322Z,50.21
2018-03-25T17:32:54.715Z,50.76
2018-03-25T17:35:22.139Z,51.23
2018-03-25T17:37:49.546Z,51.46
2018-03-25T17:40:16.943Z,50.77
2018-03-25T17:42:44.335Z,51.66
2018-03-25T17:45:11.754Z,51.50
2018-03-25T17:47:39.134Z,51.90
2018-03-25T17:50:06.580Z,51.50
2018-03-25T17:52:33.972Z,51.71
2018-03-25T17:55:01.365Z,52.20
2018-03-25T17:57:28.835Z,52.39
2018-03-25T17:59:56.307Z,51.96
2018-03-25T18:02:23.719Z,51.89
2018-03-25T18:04:51.121Z,52.20
2018-03-25T18:07:18.524Z,52.62
2018-03-25T18:09:45.914Z,52.09
2018-03-25T18:12:13.386Z,52.97
2018-03-25T18:14:40.842Z,53.19
2018-03-25T18:17:08.310Z,53.53
2018-03-25T18:19:35.702Z,53.97
2018-03-25T18:22:03.103Z,54.73
2018-03-25T18:24:30.550Z,55.88
2018-03-25T18:26:57.923Z,55.78
2018-03-25T18:29:25.323Z,55.71
2018-03-25T18:31:52.726Z,55.49
2018-03-25T18:34:20.136Z,55.48
2018-03-25T18:36:47.570Z,56.17
2018-03-25T18:39:15.018Z,56.12
2018-03-25T18:41:42.419Z,56.12
2018-03-25T18:44:09.919Z,55.92
2018-03-25T18:46:37.322Z,55.51
2018-03-25T18:49:04.724Z,56.53
2018-03-25T18:51:32.126Z,56.42
2018-03-25T18:53:59.543Z,56.08
2018-03-25T18:56:26.949Z,55.59
2018-03-25T18:58:54.462Z,55.14
2018-03-25T19:01:21.862Z,55.53
2018-03-25T19:03:49.362Z,55.03
2018-03-25T19:06:16.762Z,55.08
2018-03-25T19:08:44.162Z,54.79
2018-03-25T19:11:11.554Z,54.46
2018-03-25T19:13:38.951Z,54.34
2018-03-25T19:16:06.362Z,54.29
2018-03-25T19:18:33.818Z,54.33
2018-03-25T19:21:01.223Z,54.48
2018-03-25T19:23:28.634Z,54.71
2018-03-25T19:25:56.035Z,54.65
2018-03-25T19:28:23.434Z,54.21
2018-03-25T19:30:50.890Z,54.01
2018-03-25T19:33:18.282Z,53.76
2018-03-25T19:35:45.683Z,53.71
2018-03-25T19:38:13.092Z,53.52
2018-03-25T19:40:40.549Z,53.76
2018-03-25T19:43:07.875Z,53.81
2018-03-25T19:45:35.298Z,53.67
2018-03-25T19:48:02.695Z,53.66
2018-03-25T19:50:30.117Z,53.78
2018-03-25T19:52:57.597Z,53.76
2018-03-25T19:55:25.059Z,53.95
2018-03-25T19:57:52.503Z,53.86
2018-03-25T20:00:19.968Z,54.31
2018-03-25T20:02:47.366Z,54.68
2018-03-25T20:05:14.874Z,54.52
2018-03-25T20:07:42.336Z,54.39
2018-03-25T20:10:09.782Z,54.56
2018-03-25T20:12:37.193Z,54.27
2018-03-25T20:15:04.611Z,54.19
2018-03-25T20:17:32.046Z,54.19
2018-03-25T20:19:59.439Z,54.12
2018-03-25T20:22:26.879Z,54.28
2018-03-25T20:24:54.275Z,54.43
2018-03-25T20:27:21.791Z,55.53
2018-03-25T20:29:49.186Z,55.77
2018-03-25T20:32:16.741Z,55.86
2018-03-25T20:34:44.131Z,56.26
2018-03-25T20:37:11.623Z,56.29
2018-03-25T20:39:39.070Z,56.36
2018-03-25T20:42:06.471Z,56.07
2018-03-25T20:44:33.884Z,55.74
2018-03-25T20:47:01.341Z,55.61
2018-03-25T20:49:28.704Z,55.61
2018-03-25T20:51:56.111Z,55.71
2018-03-25T20:54:23.606Z,55.96
2018-03-25T20:56:51.016Z,55.91
2018-03-25T20:59:18.415Z,55.85
2018-03-25T21:01:45.814Z,56.23
2018-03-25T21:04:13.240Z,56.63
2018-03-25T21:06:40.683Z,57.04
2018-03-25T21:09:08.147Z,57.33
2018-03-25T21:11:35.591Z,57.31
2018-03-25T21:14:02.987Z,57.42
2018-03-25T21:16:30.394Z,57.63
2018-03-25T21:18:57.860Z,58.04
2018-03-25T21:21:25.258Z,58.16
2018-03-25T21:23:52.673Z,58.48
2018-03-25T21:26:20.090Z,58.60
2018-03-25T21:28:47.582Z,58.98
2018-03-25T21:31:14.994Z,58.90
2018-03-25T21:33:42.386Z,59.52
2018-03-25T21:36:09.786Z,59.79
2018-03-25T21:38:37.207Z,59.71
2018-03-25T21:41:04.606Z,60.32
2018-03-25T21:43:32.016Z,60.69
2018-03-25T21:45:59.471Z,60.24
2018-03-25T21:48:26.928Z,59.91
2018-03-25T21:50:54.380Z,59.36
2018-03-25T21:53:21.838Z,58.91
2018-03-25T21:55:49.291Z,58.97
2018-03-25T21:58:16.699Z,59.12
2018-03-25T22:00:44.136Z,58.96
2018-03-25T22:03:11.577Z,59.25
2018-03-25T22:05:39.050Z,59.17
2018-03-25T22:08:06.487Z,59.30
2018-03-25T22:10:33.891Z,59.24
2018-03-25T22:13:01.284Z,59.58
2018-03-25T22:15:28.689Z,60.16
2018-03-25T22:17:56.114Z,60.26
2018-03-25T22:20:23.515Z,59.96
2018-03-25T22:22:50.931Z,59.89
2018-03-25T22:25:18.323Z,60.62
2018-03-25T22:27:45.722Z,60.68
2018-03-25T22:30:13.193Z,61.30
2018-03-25T22:32:40.659Z,61.54
2018-03-25T22:35:08.102Z,61.43
2018-03-25T22:37:35.505Z,61.70
2018-03-25T22:40:02.900Z,62.05
2018-03-25T22:42:30.302Z,62.37
2018-03-25T22:44:57.747Z,61.81
2018-03-25T22:47:25.083Z,61.90
2018-03-25T22:49:52.539Z,61.48
2018-03-25T22:52:19.934Z,62.23
2018-03-25T22:54:47.333Z,62.39
2018-03-25T22:57:14.730Z,62.29
2018-03-25T22:59:42.151Z,62.22
2018-03-25T23:02:09.534Z,62.32
2018-03-25T23:04:36.933Z,62.59
2018-03-25T23:07:04.323Z,62.81
2018-03-25T23:09:31.796Z,63.11
2018-03-25T23:11:59.178Z,62.86
2018-03-25T23:14:26.562Z,64.00
2018-03-25T23:16:54.048Z,63.97
2018-03-25T23:19:21.811Z,64.18
2018-03-25T23:21:49.214Z,64.48
2018-03-25T23:24:16.606Z,64.43
2018-03-25T23:26:44.034Z,64.21
2018-03-25T23:29:11.432Z,64.12
2018-03-25T23:31:38.818Z,64.00
2018-03-25T23:34:06.227Z,64.25
2018-03-25T23:36:33.662Z,64.22
2018-03-25T23:39:01.063Z,63.95
2018-03-25T23:41:28.451Z,64.03
2018-03-25T23:43:55.844Z,64.63
2018-03-25T23:46:23.243Z,65.45
2018-03-25T23:48:50.634Z,65.45
2018-03-25T23:51:18.028Z,65.29
2018-03-25T23:53:45.438Z,65.17
2018-03-25T23:56:12.826Z,65.54
2018-03-25T23:58:40.242Z,65.34
